createdAt,value
2018-05-05T00:01:28.209Z,12.80
2018-05-05T00:03:55.789Z,12.50
2018-05-05T00:06:23.604Z,13.20
2018-05-05T00:08:51.185Z,12.27
2018-05-05T00:11:18.777Z,13.53
2018-05-05T00:13:46.585Z,12.03
2018-05-05T00:16:14.163Z,12.10
2018-05-05T00:18:41.755Z,11.30
2018-05-05T00:21:09.573Z,12.03
2018-05-05T00:23:37.161Z,13.17
2018-05-05T00:26:04.750Z,13.87
2018-05-05T00:28:32.367Z,14.10
2018-05-05T00:31:00.026Z,13.80
2018-05-05T00:33:27.610Z,13.10
2018-05-05T00:35:55.356Z,13.67
2018-05-05T00:38:23.003Z,12.07
2018-05-05T00:40:50.668Z,14.10
2018-05-05T00:43:18.304Z,13.60
2018-05-05T00:45:46.005Z,13.00
2018-05-05T00:48:13.657Z,12.70
2018-05-05T00:50:41.270Z,13.33
2018-05-05T00:53:08.991Z,14.03
2018-05-05T00:55:36.712Z,13.47
2018-05-05T00:58:04.344Z,12.53
2018-05-05T01:00:31.948Z,14.00
2018-05-05T01:02:59.624Z,13.87
2018-05-05T01:05:27.356Z,15.30
2018-05-05T01:07:54.945Z,15.70
2018-05-05T01:10:22.532Z,16.23
2018-05-05T01:12:50.256Z,15.37
2018-05-05T01:15:17.932Z,15.30
2018-05-05T01:17:45.512Z,14.27
2018-05-05T01:20:13.263Z,17.27
2018-05-05T01:22:41.129Z,16.20
2018-05-05T01:25:08.761Z,15.57
2018-05-05T01:27:36.379Z,14.90
2018-05-05T01:30:03.981Z,16.17
2018-05-05T01:32:31.555Z,18.53
2018-05-05T01:34:59.187Z,15.90
2018-05-05T01:37:26.903Z,15.13
2018-05-05T01:39:54.497Z,15.07
2018-05-05T01:42:22.439Z,12.53
2018-05-05T01:44:50.097Z,15.43
2018-05-05T01:47:17.674Z,15.40
2018-05-05T01:49:45.287Z,13.80
2018-05-05T01:52:12.853Z,14.63
2018-05-05T01:54:40.443Z,13.27
2018-05-05T01:57:08.063Z,15.00
2018-05-05T01:59:35.654Z,13.10
2018-05-05T02:02:03.326Z,14.47
2018-05-05T02:04:30.950Z,13.57
2018-05-05T02:06:58.827Z,13.13
2018-05-05T02:09:26.504Z,13.10
2018-05-05T02:11:54.138Z,13.67
2018-05-05T02:14:21.743Z,13.10
2018-05-05T02:16:49.496Z,13.90
2018-05-05T02:19:17.140Z,12.77
2018-05-05T02:21:44.707Z,13.90
2018-05-05T02:24:12.493Z,15.40
2018-05-05T02:26:40.160Z,15.33
2018-05-05T02:29:07.795Z,13.27
2018-05-05T02:31:35.400Z,12.43
2018-05-05T02:34:03.142Z,13.70
2018-05-05T02:36:30.803Z,14.70
2018-05-05T02:38:58.383Z,13.93
2018-05-05T02:41:26.002Z,12.90
2018-05-05T02:43:53.783Z,15.37
2018-05-05T02:46:21.402Z,14.43
2018-05-05T02:48:49.118Z,13.77
2018-05-05T02:51:16.781Z,15.50
2018-05-05T02:53:44.498Z,13.73
2018-05-05T02:56:12.297Z,13.70
2018-05-05T02:58:39.888Z,14.03
2018-05-05T03:01:07.619Z,13.47
2018-05-05T03:03:35.367Z,12.17
2018-05-05T03:06:03.145Z,12.77
2018-05-05T03:08:30.735Z,14.60
2018-05-05T03:10:58.489Z,13.60
2018-05-05T03:13:26.142Z,13.77
2018-05-05T03:15:53.722Z,13.37
2018-05-05T03:18:21.339Z,13.67
2018-05-05T03:20:48.906Z,12.67
2018-05-05T03:23:17.408Z,12.80
2018-05-05T03:25:45.055Z,11.90
2018-05-05T03:28:12.734Z,15.17
2018-05-05T03:30:40.316Z,13.40
2018-05-05T03:33:08.168Z,12.40
2018-05-05T03:35:35.735Z,13.40
2018-05-05T03:38:03.419Z,13.60
2018-05-05T03:40:31.019Z,12.10
2018-05-05T03:42:58.707Z,10.20
2018-05-05T03:45:26.285Z,11.53
2018-05-05T03:47:54.016Z,10.63
2018-05-05T03:50:21.590Z,11.60
2018-05-05T03:52:49.167Z,12.43
2018-05-05T03:55:17.013Z,10.13
2018-05-05T03:57:44.592Z,9.07
2018-05-05T04:00:23.999Z,10.07
2018-05-05T04:05:52.723Z,11.60
2018-05-05T04:08:20.287Z,7.53
2018-05-05T04:10:47.863Z,7.30
2018-05-05T04:13:15.489Z,7.63
2018-05-05T04:15:43.365Z,6.43
2018-05-05T04:18:10.948Z,7.40
2018-05-05T04:20:38.683Z,6.37
2018-05-05T04:23:06.259Z,8.07
2018-05-05T04:25:33.835Z,8.00
2018-05-05T04:28:01.482Z,7.30
2018-05-05T04:30:29.125Z,7.07
2018-05-05T04:32:56.803Z,6.47
2018-05-05T04:35:24.455Z,8.43
2018-05-05T04:37:52.036Z,6.47
2018-05-05T04:40:19.612Z,7.37
2018-05-05T04:42:47.268Z,5.80
2018-05-05T04:45:14.967Z,7.13
2018-05-05T04:47:42.542Z,6.03
2018-05-05T04:50:10.159Z,6.30
2018-05-05T04:52:37.756Z,6.73
2018-05-05T04:55:05.331Z,6.80
2018-05-05T04:57:32.965Z,6.23
2018-05-05T05:00:00.532Z,6.47
2018-05-05T05:02:28.105Z,5.80
2018-05-05T05:04:55.738Z,5.37
2018-05-05T05:07:23.309Z,5.70
2018-05-05T05:09:50.896Z,6.90
2018-05-05T05:12:18.492Z,5.80
2018-05-05T05:14:46.072Z,6.13
2018-05-05T05:17:13.636Z,4.50
2018-05-05T05:19:41.250Z,5.43
2018-05-05T05:22:08.825Z,6.13
2018-05-05T05:24:36.430Z,5.83
2018-05-05T05:27:04.047Z,5.90
2018-05-05T05:29:31.625Z,6.00
2018-05-05T05:31:59.203Z,5.83
2018-05-05T05:34:26.807Z,5.23
2018-05-05T05:36:54.372Z,4.90
2018-05-05T05:39:21.956Z,4.80
2018-05-05T05:41:49.602Z,5.00
2018-05-05T05:44:17.171Z,5.50
2018-05-05T05:46:44.783Z,6.80
2018-05-05T05:49:12.388Z,4.90
2018-05-05T05:51:39.961Z,6.40
2018-05-05T05:54:07.552Z,4.97
2018-05-05T05:56:35.164Z,4.00
2018-05-05T05:59:02.743Z,4.37
2018-05-05T06:01:30.318Z,5.53
2018-05-05T06:03:57.936Z,4.53
2018-05-05T06:06:25.507Z,4.67
2018-05-05T06:08:53.151Z,4.80
2018-05-05T06:11:20.870Z,4.20
2018-05-05T06:13:48.457Z,5.10
2018-05-05T06:16:16.017Z,4.30
2018-05-05T06:18:43.619Z,4.90
2018-05-05T06:21:11.195Z,7.83
2018-05-05T06:23:38.761Z,5.00
2018-05-05T06:26:06.415Z,5.00
2018-05-05T06:28:33.984Z,5.80
2018-05-05T06:31:01.552Z,5.77
2018-05-05T06:33:29.170Z,5.10
2018-05-05T06:35:56.985Z,5.17
2018-05-05T06:38:24.576Z,4.40
2018-05-05T06:40:52.245Z,4.10
2018-05-05T06:43:19.835Z,4.20
2018-05-05T06:45:47.448Z,4.67
2018-05-05T06:48:15.091Z,4.03
2018-05-05T06:50:42.679Z,4.77
2018-05-05T06:53:10.309Z,4.03
2018-05-05T06:55:37.945Z,4.93
2018-05-05T06:58:05.560Z,3.93
2018-05-05T07:00:33.152Z,3.93
2018-05-05T07:03:00.824Z,4.63
2018-05-05T07:05:28.433Z,4.00
2018-05-05T07:07:56.051Z,5.23
2018-05-05T07:10:23.715Z,4.07
2018-05-05T07:12:51.296Z,5.40
2018-05-05T07:15:18.864Z,4.60
2018-05-05T07:17:46.465Z,3.80
2018-05-05T07:20:14.036Z,4.50
2018-05-05T07:22:41.615Z,4.77
2018-05-05T07:25:09.221Z,3.57
2018-05-05T07:27:36.897Z,4.70
2018-05-05T07:30:04.488Z,4.17
2018-05-05T07:32:32.139Z,3.30
2018-05-05T07:34:59.699Z,3.57
2018-05-05T07:37:27.293Z,2.90
2018-05-05T07:39:54.953Z,4.00
2018-05-05T07:42:22.594Z,5.23
2018-05-05T07:44:50.215Z,4.13
2018-05-05T07:47:17.815Z,3.33
2018-05-05T07:49:45.383Z,4.40
2018-05-05T07:52:12.956Z,4.20
2018-05-05T07:54:40.542Z,3.87
2018-05-05T07:57:08.153Z,4.20
2018-05-05T07:59:35.844Z,3.83
2018-05-05T08:02:03.564Z,3.13
2018-05-05T08:04:31.142Z,5.07
2018-05-05T08:06:58.718Z,4.20
2018-05-05T08:09:26.769Z,3.73
2018-05-05T08:11:54.463Z,2.90
2018-05-05T08:14:22.036Z,3.60
2018-05-05T08:16:49.728Z,4.82
2018-05-05T08:19:17.257Z,4.40
2018-05-05T08:21:44.829Z,3.10
2018-05-05T08:24:12.460Z,3.97
2018-05-05T08:26:40.053Z,2.73
2018-05-05T08:29:07.669Z,3.67
2018-05-05T08:31:35.289Z,3.70
2018-05-05T08:34:02.890Z,3.53
2018-05-05T08:36:30.513Z,4.83
2018-05-05T08:38:58.137Z,2.87
2018-05-05T08:41:25.736Z,3.60
2018-05-05T08:43:53.341Z,3.60
2018-05-05T08:46:20.972Z,3.62
2018-05-05T08:48:48.559Z,4.18
2018-05-05T08:51:16.114Z,4.20
2018-05-05T08:53:43.731Z,4.07
2018-05-05T08:56:11.363Z,3.40
2018-05-05T08:58:38.948Z,3.80
2018-05-05T09:01:06.552Z,3.03
2018-05-05T09:03:34.135Z,4.03
2018-05-05T09:06:01.739Z,3.92
2018-05-05T09:08:29.343Z,2.40
2018-05-05T09:10:56.911Z,2.55
2018-05-05T09:13:24.480Z,2.05
2018-05-05T09:15:52.090Z,3.17
2018-05-05T09:18:19.672Z,2.80
2018-05-05T09:20:47.244Z,2.53
2018-05-05T09:23:14.875Z,3.72
2018-05-05T09:25:42.463Z,2.80
2018-05-05T09:28:10.069Z,2.25
2018-05-05T09:30:37.972Z,2.63
2018-05-05T09:33:05.525Z,3.08
2018-05-05T09:35:33.095Z,3.97
2018-05-05T09:38:00.691Z,3.55
2018-05-05T09:40:28.254Z,3.22
2018-05-05T09:42:55.822Z,2.80
2018-05-05T09:45:23.412Z,3.03
2018-05-05T09:47:50.983Z,2.83
2018-05-05T09:50:18.555Z,2.90
2018-05-05T09:52:46.154Z,2.67
2018-05-05T09:55:13.712Z,2.10
2018-05-05T09:57:41.298Z,2.12
2018-05-05T10:00:08.908Z,2.60
2018-05-05T10:02:36.515Z,3.65
2018-05-05T10:05:04.119Z,2.00
2018-05-05T10:07:31.738Z,3.62
2018-05-05T10:09:59.383Z,3.00
2018-05-05T10:12:26.965Z,3.67
2018-05-05T10:14:54.545Z,2.70
2018-05-05T10:17:22.180Z,3.42
2018-05-05T10:19:49.751Z,2.17
2018-05-05T10:22:17.326Z,3.33
2018-05-05T10:24:44.967Z,4.43
2018-05-05T10:27:12.562Z,3.65
2018-05-05T10:29:40.161Z,3.08
2018-05-05T10:32:07.776Z,2.53
2018-05-05T10:34:35.366Z,3.35
2018-05-05T10:37:02.972Z,2.92
2018-05-05T10:39:30.584Z,2.37
2018-05-05T10:41:58.160Z,2.25
2018-05-05T10:44:25.746Z,2.67
2018-05-05T10:46:53.355Z,2.30
2018-05-05T10:49:20.933Z,3.83
2018-05-05T10:51:48.534Z,2.37
2018-05-05T10:54:16.163Z,2.53
2018-05-05T10:56:43.743Z,2.78
2018-05-05T10:59:11.350Z,2.25
2018-05-05T11:01:38.952Z,1.90
2018-05-05T11:04:06.525Z,2.42
2018-05-05T11:06:34.081Z,2.45
2018-05-05T11:09:01.720Z,1.77
2018-05-05T11:11:29.296Z,2.95
2018-05-05T11:13:56.885Z,3.95
2018-05-05T11:16:24.526Z,2.62
2018-05-05T11:18:52.101Z,2.60
2018-05-05T11:21:19.671Z,1.98
2018-05-05T11:23:47.394Z,1.73
2018-05-05T11:26:14.997Z,3.25
2018-05-05T11:28:42.521Z,2.35
2018-05-05T11:31:10.119Z,2.55
2018-05-05T11:33:37.694Z,2.28
2018-05-05T11:36:05.264Z,2.75
2018-05-05T11:38:32.925Z,3.62
2018-05-05T11:41:00.499Z,2.40
2018-05-05T11:43:28.061Z,2.97
2018-05-05T11:45:55.656Z,1.75
2018-05-05T11:48:23.236Z,2.00
2018-05-05T11:50:50.809Z,2.10
2018-05-05T11:53:18.420Z,3.20
2018-05-05T11:55:46.010Z,3.72
2018-05-05T11:58:13.578Z,3.50
2018-05-05T12:00:41.179Z,2.40
2018-05-05T12:03:08.744Z,2.37
2018-05-05T12:05:36.321Z,2.20
2018-05-05T12:08:03.948Z,1.70
2018-05-05T12:10:31.520Z,2.35
2018-05-05T12:12:59.065Z,1.62
2018-05-05T12:15:26.677Z,2.12
2018-05-05T12:17:54.242Z,2.47
2018-05-05T12:20:21.915Z,2.10
2018-05-05T12:22:49.554Z,2.37
2018-05-05T12:25:17.120Z,2.05
2018-05-05T12:27:44.672Z,1.92
2018-05-05T12:30:12.273Z,1.70
2018-05-05T12:32:39.851Z,3.55
2018-05-05T12:35:07.471Z,1.70
2018-05-05T12:37:35.065Z,2.50
2018-05-05T12:40:02.661Z,2.92
2018-05-05T12:42:30.226Z,1.80
2018-05-05T12:44:57.829Z,2.33
2018-05-05T12:47:25.373Z,2.37
2018-05-05T12:52:26.713Z,2.30
2018-05-05T12:54:54.267Z,2.80
2018-05-05T12:57:21.842Z,1.97
2018-05-05T12:59:49.429Z,2.97
2018-05-05T13:02:16.984Z,4.23
2018-05-05T13:04:44.581Z,3.47
2018-05-05T13:07:12.235Z,3.70
2018-05-05T13:09:39.810Z,3.30
2018-05-05T13:12:07.385Z,4.40
2018-05-05T13:14:34.996Z,2.67
2018-05-05T13:17:02.561Z,3.30
2018-05-05T13:19:30.113Z,2.90
2018-05-05T13:21:57.802Z,3.87
2018-05-05T13:24:25.374Z,3.30
2018-05-05T13:26:52.924Z,3.07
2018-05-05T13:29:20.599Z,3.10
2018-05-05T13:31:48.160Z,3.20
2018-05-05T13:34:15.727Z,3.80
2018-05-05T13:36:43.412Z,2.83
2018-05-05T13:39:10.927Z,4.80
2018-05-05T13:41:38.499Z,3.30
2018-05-05T13:44:06.093Z,2.27
2018-05-05T13:46:33.675Z,2.60
2018-05-05T13:49:01.238Z,3.83
2018-05-05T13:51:28.951Z,3.43
2018-05-05T13:53:56.565Z,3.77
2018-05-05T13:56:24.230Z,2.97
2018-05-05T13:58:51.832Z,3.23
2018-05-05T14:01:19.431Z,3.67
2018-05-05T14:03:46.999Z,3.57
2018-05-05T14:06:14.999Z,3.60
2018-05-05T14:08:42.661Z,3.53
2018-05-05T14:11:10.333Z,3.93
2018-05-05T14:13:37.952Z,3.73
2018-05-05T14:16:08.939Z,2.60
2018-05-05T14:18:41.658Z,3.50
2018-05-05T14:21:13.228Z,4.33
2018-05-05T14:23:45.626Z,2.93
2018-05-05T14:26:13.601Z,2.83
2018-05-05T14:28:41.259Z,2.93
2018-05-05T14:31:08.991Z,3.40
2018-05-05T14:33:36.570Z,3.53
2018-05-05T14:36:04.182Z,2.97
2018-05-05T14:38:31.922Z,3.13
2018-05-05T14:40:59.608Z,3.23
2018-05-05T14:43:27.464Z,2.53
2018-05-05T14:45:55.019Z,6.20
2018-05-05T14:48:22.747Z,3.20
2018-05-05T14:50:50.366Z,2.30
2018-05-05T14:53:18.435Z,2.47
2018-05-05T14:55:46.044Z,2.70
2018-05-05T14:58:13.656Z,2.93
2018-05-05T15:00:41.273Z,2.33
2018-05-05T15:03:08.864Z,3.40
2018-05-05T15:05:36.547Z,3.30
2018-05-05T15:08:04.222Z,2.60
2018-05-05T15:10:31.886Z,3.50
2018-05-05T15:12:59.607Z,3.13
2018-05-05T15:15:27.239Z,3.83
2018-05-05T15:17:54.838Z,4.03
2018-05-05T15:20:22.612Z,2.53
2018-05-05T15:22:50.226Z,3.03
2018-05-05T15:25:17.875Z,2.63
2018-05-05T15:27:45.440Z,2.33
2018-05-05T15:30:13.188Z,2.73
2018-05-05T15:32:40.818Z,3.27
2018-05-05T15:35:08.497Z,2.93
2018-05-05T15:37:36.076Z,3.10
2018-05-05T15:40:03.724Z,3.27
2018-05-05T15:42:31.317Z,2.27
2018-05-05T15:44:58.973Z,2.63
2018-05-05T15:47:26.570Z,3.00
2018-05-05T15:49:54.254Z,2.80
2018-05-05T15:52:21.909Z,3.17
2018-05-05T15:54:49.518Z,3.40
2018-05-05T15:57:17.113Z,3.90
2018-05-05T15:59:44.764Z,3.27
2018-05-05T16:02:12.359Z,3.10
2018-05-05T16:04:39.949Z,3.07
2018-05-05T16:07:07.536Z,3.10
2018-05-05T16:09:35.143Z,3.53
2018-05-05T16:12:02.804Z,3.53
2018-05-05T16:14:30.488Z,3.53
2018-05-05T16:16:58.333Z,4.70
2018-05-05T16:19:25.902Z,4.73
2018-05-05T16:21:53.777Z,3.90
2018-05-05T16:24:21.714Z,3.53
2018-05-05T16:26:49.298Z,3.40
2018-05-05T16:29:16.886Z,3.70
2018-05-05T16:31:44.482Z,3.60
2018-05-05T16:34:12.056Z,4.50
2018-05-05T16:36:39.632Z,3.07
2018-05-05T16:39:07.262Z,4.37
2018-05-05T16:41:34.826Z,3.70
2018-05-05T16:44:02.603Z,3.27
2018-05-05T16:46:30.280Z,3.40
2018-05-05T16:48:57.964Z,4.03
2018-05-05T16:51:25.558Z,3.30
2018-05-05T16:53:53.163Z,4.10
2018-05-05T16:56:20.916Z,6.80
2018-05-05T16:58:48.576Z,4.37
2018-05-05T17:01:16.224Z,5.13
2018-05-05T17:03:43.906Z,5.37
2018-05-05T17:06:11.565Z,5.37
2018-05-05T17:08:39.177Z,5.00
2018-05-05T17:11:06.902Z,5.03
2018-05-05T17:13:34.496Z,8.63
2018-05-05T17:16:02.113Z,8.70
2018-05-05T17:18:29.875Z,7.00
2018-05-05T17:20:57.755Z,4.27
2018-05-05T17:23:25.468Z,4.97
2018-05-05T17:25:53.084Z,4.70
2018-05-05T17:28:20.741Z,4.80
2018-05-05T17:30:48.408Z,5.50
2018-05-05T17:33:16.057Z,5.00
2018-05-05T17:35:43.729Z,6.37
2018-05-05T17:38:11.380Z,10.70
2018-05-05T17:40:38.955Z,17.70
2018-05-05T17:43:06.703Z,7.90
2018-05-05T17:45:34.377Z,7.23
2018-05-05T17:48:02.040Z,6.07
2018-05-05T17:50:29.749Z,6.20
2018-05-05T17:52:57.339Z,7.33
2018-05-05T17:55:25.025Z,6.90
2018-05-05T17:57:52.677Z,6.57
2018-05-05T18:00:20.276Z,8.57
2018-05-05T18:02:48.026Z,7.20
2018-05-05T18:05:15.760Z,6.87
2018-05-05T18:07:43.426Z,7.33
2018-05-05T18:10:11.088Z,8.87
2018-05-05T18:12:38.963Z,6.50
2018-05-05T18:15:06.848Z,9.40
2018-05-05T18:17:34.433Z,8.50
2018-05-05T18:20:02.161Z,7.60
2018-05-05T18:22:29.882Z,6.40
2018-05-05T18:24:57.747Z,8.20
2018-05-05T18:27:25.550Z,7.30
2018-05-05T18:29:53.397Z,7.13
2018-05-05T18:32:21.002Z,6.80
2018-05-05T18:34:48.574Z,7.30
2018-05-05T18:37:16.397Z,8.20
2018-05-05T18:39:43.982Z,7.10
2018-05-05T18:42:11.789Z,8.27
2018-05-05T18:44:39.406Z,13.50
2018-05-05T18:47:06.966Z,6.23
2018-05-05T18:49:34.552Z,7.43
2018-05-05T18:52:02.215Z,9.83
2018-05-05T18:54:29.827Z,8.43
2018-05-05T18:56:57.503Z,6.33
2018-05-05T18:59:25.100Z,7.10
2018-05-05T19:01:52.667Z,7.07
2018-05-05T19:04:20.249Z,8.37
2018-05-05T19:06:47.932Z,8.43
2018-05-05T19:09:15.505Z,7.77
2018-05-05T19:11:43.169Z,8.77
2018-05-05T19:14:10.783Z,9.50
2018-05-05T19:16:38.438Z,9.90
2018-05-05T19:19:06.247Z,10.57
2018-05-05T19:21:33.987Z,10.87
2018-05-05T19:24:01.573Z,8.80
2018-05-05T19:26:29.143Z,8.53
2018-05-05T19:28:57.169Z,10.93
2018-05-05T19:31:24.721Z,9.40
2018-05-05T19:33:52.420Z,9.17
2018-05-05T19:36:20.277Z,9.20
2018-05-05T19:38:48.030Z,10.03
2018-05-05T19:41:15.625Z,9.60
2018-05-05T19:43:43.248Z,9.13
2018-05-05T19:46:10.851Z,9.13
2018-05-05T19:48:38.612Z,9.70
2018-05-05T19:51:06.265Z,9.03
2018-05-05T19:53:33.924Z,8.30
2018-05-05T19:56:01.515Z,8.23
2018-05-05T19:58:29.146Z,9.43
2018-05-05T20:00:56.928Z,11.13
2018-05-05T20:03:24.501Z,7.87
2018-05-05T20:05:52.646Z,10.17
2018-05-05T20:08:20.228Z,8.63
2018-05-05T20:10:47.858Z,9.10
2018-05-05T20:13:15.640Z,7.80
2018-05-05T20:15:43.203Z,7.63
2018-05-05T20:18:10.781Z,9.13
2018-05-05T20:20:38.933Z,9.40
2018-05-05T20:23:06.597Z,10.10
2018-05-05T20:25:34.127Z,9.73
2018-05-05T20:28:01.799Z,9.30
2018-05-05T20:30:29.691Z,10.73
2018-05-05T20:32:57.270Z,11.17
2018-05-05T20:35:24.977Z,9.53
2018-05-05T20:37:52.875Z,9.80
2018-05-05T20:40:20.545Z,9.23
2018-05-05T20:42:48.164Z,10.40
2018-05-05T20:45:15.766Z,9.30
2018-05-05T20:47:43.512Z,9.27
2018-05-05T20:50:11.396Z,8.90
2018-05-05T20:52:39.043Z,8.73
2018-05-05T20:55:06.621Z,8.80
2018-05-05T20:57:34.232Z,9.57
2018-05-05T21:00:01.827Z,8.20
2018-05-05T21:02:29.765Z,9.13
2018-05-05T21:04:57.345Z,9.23
2018-05-05T21:07:25.035Z,10.03
2018-05-05T21:09:52.624Z,9.70
2018-05-05T21:12:20.245Z,9.70
2018-05-05T21:14:47.996Z,10.53
2018-05-05T21:17:15.742Z,10.07
2018-05-05T21:19:43.753Z,9.20
2018-05-05T21:22:11.336Z,10.23
2018-05-05T21:24:39.078Z,9.27
2018-05-05T21:27:06.708Z,10.20
2018-05-05T21:29:34.384Z,9.17
2018-05-05T21:32:01.999Z,8.80
2018-05-05T21:34:29.727Z,7.77
2018-05-05T21:36:57.390Z,9.40
2018-05-05T21:39:24.988Z,9.77
2018-05-05T21:41:52.965Z,8.70
2018-05-05T21:44:20.705Z,8.80
2018-05-05T21:46:48.295Z,10.37
2018-05-05T21:49:16.101Z,10.80
2018-05-05T21:51:43.727Z,9.33
2018-05-05T21:54:11.421Z,10.40
2018-05-05T21:56:38.991Z,7.97
2018-05-05T21:59:06.762Z,8.20
2018-05-05T22:01:34.403Z,7.70
2018-05-05T22:04:02.035Z,9.37
2018-05-05T22:06:29.637Z,8.83
2018-05-05T22:08:57.407Z,7.47
2018-05-05T22:11:25.069Z,8.20
2018-05-05T22:13:53.340Z,10.80
2018-05-05T22:16:21.183Z,9.17
2018-05-05T22:18:48.793Z,8.43
2018-05-05T22:21:16.503Z,8.77
2018-05-05T22:23:44.091Z,8.77
2018-05-05T22:26:11.665Z,8.60
2018-05-05T22:28:39.260Z,9.17
2018-05-05T22:31:06.857Z,8.97
2018-05-05T22:33:34.851Z,9.13
2018-05-05T22:36:02.481Z,9.70
2018-05-05T22:38:30.156Z,8.47
2018-05-05T22:40:57.997Z,9.60
2018-05-05T22:43:25.811Z,10.13
2018-05-05T22:45:54.463Z,9.70
2018-05-05T22:48:22.427Z,9.60
2018-05-05T22:50:50.053Z,10.20
2018-05-05T22:53:17.626Z,9.90
2018-05-05T22:55:45.213Z,9.00
2018-05-05T22:58:12.824Z,10.90
2018-05-05T23:00:40.431Z,8.77
2018-05-05T23:03:08.143Z,11.07
2018-05-05T23:05:36.610Z,9.83
2018-05-05T23:08:04.205Z,9.97
2018-05-05T23:10:31.829Z,9.90
2018-05-05T23:12:59.476Z,9.50
2018-05-05T23:15:27.031Z,9.70
2018-05-05T23:17:54.809Z,9.87
2018-05-05T23:20:22.569Z,9.37
2018-05-05T23:22:50.528Z,10.03
2018-05-05T23:25:18.084Z,9.67
2018-05-05T23:27:45.856Z,10.30
2018-05-05T23:30:13.471Z,10.43
2018-05-05T23:32:41.050Z,10.27
2018-05-05T23:35:08.744Z,9.87
2018-05-05T23:37:36.834Z,11.00
2018-05-05T23:40:04.810Z,10.70
2018-05-05T23:42:32.785Z,12.07
2018-05-05T23:45:00.962Z,10.43
2018-05-05T23:47:28.530Z,10.20
2018-05-05T23:49:56.198Z,10.53
2018-05-05T23:52:24.030Z,10.50
2018-05-05T23:54:51.611Z,10.17
2018-05-05T23:57:19.309Z,11.20
2018-05-05T23:59:47.013Z,11.00
